Terminal Aerodrome Forecast
Issued by NWS

Home | Current Version | Previous Version | Text Only | Print | Product List | Glossary On
Versions: 1 2 3 4 5 6 7 8 9 10 11 12 13 14 15
000
FTUS42 KGSP 201700
TAFAND
TAF
KAND 201739Z 2018/2118 20009KT P6SM FEW040 SCT250
     FM210100 22004KT P6SM SCT100 BKN250
     FM210700 24004KT P6SM SCT250
     FM211400 30007KT P6SM SCT030=

USA.gov is the U.S. government's official web portal to all federal, state and local government web resources and services.